Time;durP1;ratioP1;P1;durP2;ratioP2;P2;SDS_P1;SDS_P2;PMS_P1;PMS_P2;Temp;Humidity;BMP_temperature;BMP_pressure;BME280_temperature;BME280_humidity;BME280_pressure;Samples;Min_cycle;Max_cycle;Signal;HPM_P1;HPM_P2
2022/05/03 00:04:08;;;;;;;6.32;4.22;;;;;;;17.63;59.23;96397.19;10327141;28;20042;-24
2022/05/03 00:09:15;;;;;;;3.90;2.70;;;;;;;17.53;55.55;96387.94;10328549;28;20069;-22
2022/05/03 00:14:28;;;;;;;3.35;3.05;;;;;;;17.53;54.64;96390.47;10361463;28;20548;-23
2022/05/03 00:19:28;;;;;;;5.50;3.25;;;;;;;17.51;54.58;96382.03;10363356;28;20038;-23
2022/05/03 00:24:30;;;;;;;3.00;2.60;;;;;;;17.50;54.49;96377.84;10326741;28;20443;-23
2022/05/03 00:29:33;;;;;;;3.35;2.78;;;;;;;17.51;54.44;96377.81;10328667;28;20038;-24
2022/05/03 00:34:33;;;;;;;3.70;2.67;;;;;;;17.52;54.45;96371.06;10396451;28;20485;-22
2022/05/03 00:39:34;;;;;;;3.08;2.72;;;;;;;17.52;54.58;96371.06;10327153;28;20026;-23
2022/05/03 00:44:59;;;;;;;3.13;2.80;;;;;;;17.51;54.64;96372.75;10326385;28;20043;-24
2022/05/03 00:50:02;;;;;;;3.72;2.80;;;;;;;17.51;54.64;96374.44;10332694;28;20165;-24
2022/05/03 00:55:27;;;;;;;4.72;3.40;;;;;;;17.52;54.67;96373.59;10326532;28;20041;-22
2022/05/03 01:00:28;;;;;;;4.65;3.97;;;;;;;17.56;58.06;96366.00;10327409;28;20062;-22
2022/05/03 01:05:58;;;;;;;4.22;3.63;;;;;;;17.62;58.85;96372.72;10342530;28;20056;-23
2022/05/03 01:11:08;;;;;;;4.95;4.07;;;;;;;17.63;58.84;96369.34;10357644;28;20062;-24
2022/05/03 01:16:34;;;;;;;4.68;2.90;;;;;;;17.57;55.02;96364.31;10325850;28;20121;-23
2022/05/03 01:22:06;;;;;;;3.08;2.78;;;;;;;17.56;54.80;96368.53;10326233;28;20481;-23
2022/05/03 01:27:30;;;;;;;3.10;2.80;;;;;;;17.55;54.66;96371.06;10333124;28;20498;-23
2022/05/03 01:32:32;;;;;;;4.20;2.60;;;;;;;17.53;54.66;96365.16;10383140;28;20038;-25
2022/05/03 01:37:47;;;;;;;3.08;2.88;;;;;;;17.53;54.76;96357.56;10386207;28;20042;-23
2022/05/03 01:43:05;;;;;;;4.13;3.05;;;;;;;17.53;54.63;96363.47;10349142;28;20061;-23
2022/05/03 01:50:18;;;;;;;4.28;3.10;;;;;;;17.53;54.62;96360.94;10332903;28;20036;-24
2022/05/03 01:54:07;;;;;;;2.70;2.50;;;;;;;17.54;54.78;96354.19;10332270;28;20039;-22
2022/05/03 01:59:11;;;;;;;3.80;2.90;;;;;;;17.51;54.75;96361.78;10331803;28;20238;-24
2022/05/03 02:04:30;;;;;;;3.65;2.78;;;;;;;17.53;54.56;96357.56;10329804;28;20034;-24
2022/05/03 02:09:59;;;;;;;6.90;4.88;;;;;;;17.58;58.63;96366.00;10331994;28;20485;-22
2022/05/03 02:15:03;;;;;;;4.13;3.50;;;;;;;17.61;58.58;96365.97;10329576;28;20046;-23
2022/05/03 02:20:15;;;;;;;5.70;3.42;;;;;;;17.59;55.90;96360.91;10331584;28;20035;-25
2022/05/03 02:25:28;;;;;;;3.65;2.63;;;;;;;17.56;55.37;96358.41;10332889;28;20057;-23
2022/05/03 02:30:31;;;;;;;4.07;3.08;;;;;;;17.53;54.90;96360.94;10380825;28;20069;-23
2022/05/03 02:35:34;;;;;;;2.90;2.33;;;;;;;17.54;54.81;96356.72;10381851;28;20038;-23
2022/05/03 02:40:44;;;;;;;3.80;2.88;;;;;;;17.55;54.80;96360.94;10335435;28;20061;-24
2022/05/03 02:45:53;;;;;;;3.92;2.92;;;;;;;17.55;54.93;96358.41;10370898;28;20037;-23
2022/05/03 02:51:03;;;;;;;2.67;2.47;;;;;;;17.54;54.94;96359.25;10366120;28;20412;-23
2022/05/03 02:56:27;;;;;;;2.70;2.50;;;;;;;17.54;54.58;96359.25;10360509;28;20072;-23
2022/05/03 03:01:51;;;;;;;2.67;2.47;;;;;;;17.46;54.79;96341.56;10330015;28;20034;-23
2022/05/03 03:06:54;;;;;;;3.10;2.65;;;;;;;17.53;54.95;96349.97;10328972;28;20485;-23
2022/05/03 03:12:26;;;;;;;3.05;2.42;;;;;;;17.49;54.67;96345.78;10329448;28;20125;-24
2022/05/03 03:17:28;;;;;;;3.22;2.80;;;;;;;17.58;58.38;96340.69;10329229;28;20030;-24
2022/05/03 03:22:44;;;;;;;4.05;3.72;;;;;;;17.61;58.32;96340.66;10328669;28;20132;-23
2022/05/03 03:27:57;;;;;;;3.25;2.67;;;;;;;17.60;55.87;96344.06;10328553;28;20046;-22
2022/05/03 03:32:58;;;;;;;4.07;3.03;;;;;;;17.54;56.07;96334.78;10384596;28;20045;-22
2022/05/03 03:38:01;;;;;;;3.40;3.10;;;;;;;17.55;54.80;96351.66;10367431;28;20377;-24
2022/05/03 03:43:01;;;;;;;2.92;2.63;;;;;;;17.55;54.72;96351.66;10365430;28;20511;-23
2022/05/03 03:48:03;;;;;;;3.28;2.50;;;;;;;17.54;54.65;96351.66;10366176;28;20041;-23
2022/05/03 03:53:03;;;;;;;3.05;2.65;;;;;;;17.55;55.00;96356.72;10358433;28;20073;-22
2022/05/03 03:58:04;;;;;;;3.25;2.95;;;;;;;17.58;55.05;96348.28;10364386;28;20442;-23
2022/05/03 04:03:06;;;;;;;3.33;2.63;;;;;;;17.58;55.03;96360.94;10367897;28;20042;-23
2022/05/03 04:08:07;;;;;;;3.35;2.97;;;;;;;17.59;55.09;96358.38;10335091;28;20041;-24
2022/05/03 04:13:07;;;;;;;3.67;2.80;;;;;;;17.57;54.67;96360.09;10327282;28;20044;-22
2022/05/03 04:18:08;;;;;;;3.63;2.40;;;;;;;17.62;54.80;96367.66;10327074;28;20034;-24
2022/05/03 04:23:09;;;;;;;4.65;2.80;;;;;;;17.65;56.82;96367.69;10339843;28;20496;-24
2022/05/03 04:28:10;;;;;;;5.25;3.17;;;;;;;17.68;57.57;96373.56;10327718;28;20046;-24
2022/05/03 04:33:10;;;;;;;5.38;2.97;;;;;;;17.64;55.38;96373.56;10388160;28;20491;-25
2022/05/03 04:38:11;;;;;;;4.57;3.83;;;;;;;17.58;54.43;96369.34;10337986;28;20393;-24
2022/05/03 04:43:11;;;;;;;2.60;2.40;;;;;;;17.60;54.71;96371.91;10343375;28;20296;-24
2022/05/03 04:48:12;;;;;;;3.88;3.08;;;;;;;17.61;54.50;96387.09;10359495;28;20385;-23
2022/05/03 04:53:13;;;;;;;8.55;4.38;;;;;;;17.50;54.18;96381.19;10365372;28;20036;-23
2022/05/03 04:58:13;;;;;;;6.32;4.78;;;;;;;17.36;53.81;96392.19;10330675;28;20034;-22
2022/05/03 05:03:13;;;;;;;8.33;4.37;;;;;;;17.29;54.21;96398.03;10333814;28;20449;-23
2022/05/03 05:08:14;;;;;;;5.73;3.50;;;;;;;17.20;53.51;96393.84;10344104;28;20030;-24
2022/05/03 05:13:14;;;;;;;4.88;2.95;;;;;;;17.45;54.39;96402.28;10345616;28;20044;-24
2022/05/03 05:18:16;;;;;;;3.83;3.43;;;;;;;17.51;54.21;96400.59;10333029;28;20034;-23
2022/05/03 05:23:16;;;;;;;6.05;3.10;;;;;;;17.50;54.20;96398.91;10373542;28;20030;-23
2022/05/03 05:28:18;;;;;;;10.57;3.60;;;;;;;17.60;55.57;96407.34;10368046;28;20038;-23
2022/05/03 05:33:20;;;;;;;12.07;4.30;;;;;;;17.68;56.34;96409.00;10405424;28;20033;-22
2022/05/03 05:38:20;;;;;;;6.05;3.90;;;;;;;17.56;54.52;96403.97;10375987;28;20477;-22
2022/05/03 05:43:21;;;;;;;4.15;2.97;;;;;;;17.63;54.77;96405.66;10344392;28;20038;-23
2022/05/03 05:48:21;;;;;;;4.70;2.90;;;;;;;17.64;54.61;96417.44;10333050;28;20038;-23
2022/05/03 05:53:33;;;;;;;7.10;3.50;;;;;;;17.63;55.13;96420.84;10368611;28;20304;-24
2022/05/03 05:58:34;;;;;;;6.65;2.90;;;;;;;17.58;54.94;96411.56;10343157;28;20022;-23
2022/05/03 06:03:34;;;;;;;6.10;2.83;;;;;;;17.61;54.87;96421.69;10331750;28;20516;-23
2022/05/03 06:08:35;;;;;;;4.75;2.95;;;;;;;17.61;54.84;96426.75;10363774;28;20049;-24
2022/05/03 06:13:35;;;;;;;6.50;2.80;;;;;;;17.61;54.99;96434.31;10342087;28;20447;-24
2022/05/03 06:18:37;;;;;;;5.35;3.20;;;;;;;17.59;54.94;96436.03;10331701;28;20073;-22
2022/05/03 06:23:38;;;;;;;6.25;2.90;;;;;;;17.60;54.54;96425.06;10360269;28;20085;-24
2022/05/03 06:28:39;;;;;;;3.58;2.50;;;;;;;17.59;54.72;96423.38;10340840;28;20116;-23
2022/05/03 06:33:40;;;;;;;5.30;3.08;;;;;;;17.59;55.80;96429.25;10400235;28;20030;-23
2022/05/03 06:38:40;;;;;;;3.25;2.88;;;;;;;17.64;57.18;96426.72;10335274;28;20034;-24
2022/05/03 06:43:41;;;;;;;5.00;2.85;;;;;;;17.66;57.29;96440.25;10330042;28;20041;-24
2022/05/03 06:48:41;;;;;;;3.30;2.30;;;;;;;17.64;55.28;96427.56;10330471;28;20042;-23
2022/05/03 06:53:42;;;;;;;3.03;2.73;;;;;;;17.62;55.50;96428.41;10330531;28;20301;-23
2022/05/03 06:58:42;;;;;;;3.70;2.53;;;;;;;17.61;54.69;96429.28;10330115;28;20289;-25
2022/05/03 07:03:43;;;;;;;2.97;2.30;;;;;;;17.60;54.57;96425.06;10329736;28;20048;-24
2022/05/03 07:08:43;;;;;;;4.13;2.97;;;;;;;17.58;54.66;96431.81;10329321;28;20297;-23
2022/05/03 07:13:44;;;;;;;4.57;2.90;;;;;;;17.59;54.49;96430.97;10329208;28;20042;-22
2022/05/03 07:24:03;;;;;;;2.55;2.25;;;;;;;17.55;54.64;96436.84;10369388;28;20367;-24
2022/05/03 07:29:04;;;;;;;3.53;2.78;;;;;;;17.55;55.00;96439.38;10335919;28;20053;-24
2022/05/03 07:34:05;;;;;;;6.35;2.90;;;;;;;17.56;54.90;96441.94;10404406;28;20037;-22
2022/05/03 07:39:05;;;;;;;2.53;2.28;;;;;;;17.56;54.67;96438.56;10333772;28;20037;-23
2022/05/03 07:44:06;;;;;;;3.10;2.80;;;;;;;17.60;57.47;96443.63;10360753;28;20064;-23
2022/05/03 07:49:07;;;;;;;3.27;2.93;;;;;;;17.63;57.57;96440.22;10368991;28;20034;-23
2022/05/03 07:54:09;;;;;;;3.65;2.78;;;;;;;17.64;57.29;96447.84;10367212;28;20072;-23
2022/05/03 07:59:10;;;;;;;2.88;2.20;;;;;;;17.60;55.92;96447.84;10333970;28;20050;-24
2022/05/03 08:04:10;;;;;;;4.95;2.70;;;;;;;17.57;55.36;96445.31;10327015;28;20037;-22
2022/05/03 08:09:10;;;;;;;3.27;2.47;;;;;;;17.55;54.82;96446.97;10327748;28;20034;-23
2022/05/03 08:14:11;;;;;;;2.83;2.30;;;;;;;17.53;56.52;96447.00;10360912;28;20519;-24
2022/05/03 08:19:12;;;;;;;3.08;2.22;;;;;;;17.52;55.14;96452.06;10355264;28;20030;-23
2022/05/03 08:24:12;;;;;;;3.07;2.50;;;;;;;17.51;55.67;96442.78;10327005;28;20038;-23
2022/05/03 08:29:12;;;;;;;2.20;2.00;;;;;;;17.43;54.86;96424.22;10360889;28;20300;-23
2022/05/03 08:34:13;;;;;;;2.63;2.40;;;;;;;17.50;55.91;96443.63;10406191;28;20034;-23
2022/05/03 08:44:34;;;;;;;2.95;2.28;;;;;;;17.50;54.70;96458.81;10337170;28;20580;-23
2022/05/03 08:49:56;;;;;;;3.97;2.78;;;;;;;17.59;57.89;96462.16;10340667;28;20038;-23
2022/05/03 08:54:57;;;;;;;3.15;2.88;;;;;;;17.61;57.82;96464.72;10333832;28;20061;-23
2022/05/03 08:59:59;;;;;;;2.78;2.58;;;;;;;17.63;57.47;96450.34;10374335;28;20065;-22
2022/05/03 09:05:03;;;;;;;3.30;2.05;;;;;;;17.58;56.30;96457.13;10359773;28;20475;-23
2022/05/03 09:10:33;;;;;;;2.42;2.20;;;;;;;17.54;55.52;96460.47;10334349;28;20493;-23
2022/05/03 09:15:34;;;;;;;2.70;2.22;;;;;;;17.50;55.60;96458.81;10333265;28;20128;-23
2022/05/03 09:25:54;;;;;;;2.42;2.22;;;;;;;17.49;54.97;96457.13;10332745;28;20355;-24
2022/05/03 09:30:55;;;;;;;3.03;1.92;;;;;;;17.48;54.63;96456.28;10379668;28;20385;-23
2022/05/03 09:35:55;;;;;;;2.08;1.88;;;;;;;17.49;55.29;96452.91;10396872;28;20034;-23
2022/05/03 09:41:12;;;;;;;3.80;2.60;;;;;;;17.46;54.62;96441.94;10332597;28;20341;-24
2022/05/03 09:46:12;;;;;;;2.63;2.22;;;;;;;17.47;55.39;96441.09;10331778;28;20129;-24
2022/05/03 09:51:15;;;;;;;2.77;2.20;;;;;;;17.46;54.81;96437.72;10351804;28;20119;-23
2022/05/03 09:56:17;;;;;;;2.78;2.58;;;;;;;17.50;58.19;96428.44;10371458;28;20477;-23
2022/05/03 10:01:17;;;;;;;2.60;2.40;;;;;;;17.55;57.74;96432.66;10372421;28;20507;-23
2022/05/03 10:06:20;;;;;;;2.53;2.20;;;;;;;17.65;57.52;96428.44;10345650;28;20038;-23
2022/05/03 10:11:23;;;;;;;2.60;2.40;;;;;;;17.58;55.57;96426.75;10354700;28;20034;-23
2022/05/03 10:21:50;;;;;;;2.10;1.90;;;;;;;17.54;55.07;96423.38;10331042;28;20038;-23
2022/05/03 10:27:02;;;;;;;3.20;2.03;;;;;;;17.55;54.77;96421.66;10345819;28;20516;-25
2022/05/03 10:32:03;;;;;;;3.30;1.92;;;;;;;17.55;54.88;96425.06;10392877;28;20049;-25
2022/05/03 10:37:03;;;;;;;2.85;1.92;;;;;;;17.54;54.47;96430.13;10350391;28;20585;-24
2022/05/03 10:42:12;;;;;;;2.70;2.50;;;;;;;17.55;54.82;96416.59;10330742;28;20041;-31
2022/05/03 10:47:19;;;;;;;2.10;1.90;;;;;;;17.56;54.47;96411.56;10330065;28;20121;-23
2022/05/03 10:52:19;;;;;;;2.78;2.08;;;;;;;17.62;56.11;96423.34;10359137;28;20492;-23
2022/05/03 10:57:20;;;;;;;5.23;2.90;;;;;;;17.53;56.68;96424.22;10346627;28;20038;-23
2022/05/03 11:02:22;;;;;;;3.23;2.63;;;;;;;17.68;57.97;96439.38;10329421;28;20084;-24
2022/05/03 11:07:24;;;;;;;2.15;1.92;;;;;;;17.67;58.08;96436.88;10329376;28;20046;-22
2022/05/03 11:12:51;;;;;;;1.77;1.67;;;;;;;17.61;54.80;96452.03;10329197;28;20041;-23
2022/05/03 11:17:51;;;;;;;2.40;2.20;;;;;;;17.61;54.90;96462.19;10329570;28;20038;-23
2022/05/03 11:22:52;;;;;;;2.47;2.10;;;;;;;17.60;54.74;96465.56;10328085;28;20074;-23
2022/05/03 11:27:53;;;;;;;2.63;2.20;;;;;;;17.57;55.03;96465.56;10351406;28;20534;-23
2022/05/03 11:32:57;;;;;;;2.38;2.10;;;;;;;17.57;54.91;96465.56;10396660;28;20652;-23
2022/05/03 11:37:57;;;;;;;2.90;2.30;;;;;;;17.56;54.90;96468.94;10377432;28;20038;-25
2022/05/03 11:42:59;;;;;;;2.03;1.90;;;;;;;17.56;55.16;96471.47;10343321;28;20045;-23
2022/05/03 11:48:00;;;;;;;12.23;2.67;;;;;;;17.50;56.71;96469.75;10328165;28;20042;-23
2022/05/03 11:58:20;;;;;;;13.90;4.47;;;;;;;17.57;58.19;96468.94;10354316;28;20084;-24
2022/05/03 12:03:21;;;;;;;56.78;26.83;;;;;;;17.62;58.16;96459.66;10367896;28;20138;-24
2022/05/03 12:08:23;;;;;;;200.13;99.45;;;;;;;17.73;58.90;96468.06;10335809;28;20038;-23
2022/05/03 12:13:23;;;;;;;110.22;54.38;;;;;;;17.66;56.94;96456.25;10327260;28;20069;-23
2022/05/03 12:18:41;;;;;;;88.23;47.47;;;;;;;17.60;55.44;96461.34;10327169;28;20066;-23
2022/05/03 12:23:50;;;;;;;101.43;45.30;;;;;;;17.55;55.47;96457.97;10363097;28;20289;-24
2022/05/03 12:28:54;;;;;;;54.63;26.38;;;;;;;17.54;55.34;96450.38;10335733;28;20038;-24
2022/05/03 12:33:58;;;;;;;91.18;43.60;;;;;;;17.51;55.10;96448.66;10400024;28;20103;-23
2022/05/03 12:39:16;;;;;;;141.77;67.43;;;;;;;17.50;55.04;96444.47;10337294;28;20453;-23
2022/05/03 12:44:19;;;;;;;84.32;41.00;;;;;;;17.51;55.51;96445.31;10326486;28;20041;-23
2022/05/03 12:49:21;;;;;;;154.98;80.78;;;;;;;17.53;55.70;96446.16;10331893;28;20026;-23
2022/05/03 12:54:21;;;;;;;76.82;39.70;;;;;;;17.49;55.44;96441.94;10355048;28;20481;-22
2022/05/03 12:59:22;;;;;;;208.80;112.28;;;;;;;17.54;57.79;96455.44;10327189;28;20042;-22
2022/05/03 13:04:23;;;;;;;234.47;128.53;;;;;;;17.64;59.94;96444.44;10326549;28;20113;-23
2022/05/03 13:09:24;;;;;;;205.60;112.85;;;;;;;17.67;60.31;96447.00;10326351;28;20308;-24
2022/05/03 13:14:26;;;;;;;156.50;90.30;;;;;;;17.68;58.81;96452.03;10361439;28;20122;-23
2022/05/03 13:19:27;;;;;;;129.32;72.55;;;;;;;17.58;56.08;96436.88;10353420;28;20392;-23
2022/05/03 13:24:27;;;;;;;100.07;55.08;;;;;;;17.52;55.48;96436.88;10333645;28;20038;-23
2022/05/03 13:29:30;;;;;;;99.28;56.15;;;;;;;17.51;55.72;96425.06;10334246;28;20084;-25
2022/05/03 13:34:31;;;;;;;59.10;31.10;;;;;;;17.51;55.50;96417.47;10414715;28;20101;-23
2022/05/03 13:44:50;;;;;;;154.75;82.53;;;;;;;17.49;59.22;96402.28;10333174;28;20484;-23
2022/05/03 13:49:50;;;;;;;89.13;47.30;;;;;;;17.43;58.54;96388.81;10341440;28;20129;-23
2022/05/03 13:54:50;;;;;;;83.87;45.20;;;;;;;17.46;55.70;96392.16;10372733;28;20509;-23
2022/05/03 13:59:51;;;;;;;134.87;71.10;;;;;;;17.46;55.59;96388.78;10332396;28;20416;-23
2022/05/03 14:04:51;;;;;;;170.67;94.80;;;;;;;17.50;59.35;96385.41;10331495;28;20042;-23
2022/05/03 14:09:52;;;;;;;184.02;101.95;;;;;;;17.64;60.12;96396.34;10331443;28;20046;-23
2022/05/03 14:14:52;;;;;;;170.23;94.30;;;;;;;17.69;60.12;96397.19;10370366;28;20069;-23
2022/05/03 14:19:52;;;;;;;147.40;81.72;;;;;;;17.64;59.31;96393.81;10352945;28;20045;-23
2022/05/03 14:24:53;;;;;;;146.40;82.40;;;;;;;17.58;58.26;96401.44;10331009;28;20030;-22
2022/05/03 14:29:53;;;;;;;93.18;51.28;;;;;;;17.45;55.85;96382.03;10337207;28;20805;-24
2022/05/03 14:34:54;;;;;;;117.73;65.23;;;;;;;17.50;55.76;96382.88;10400325;28;20419;-24
2022/05/03 14:39:55;;;;;;;104.25;59.70;;;;;;;17.49;55.51;96376.16;10370366;28;20030;-24
2022/05/03 14:44:56;;;;;;;88.57;50.75;;;;;;;17.50;55.49;96382.88;10337246;28;20041;-23
2022/05/03 14:49:56;;;;;;;50.70;30.87;;;;;;;17.50;55.17;96382.88;10369173;28;20067;-23
2022/05/03 14:54:56;;;;;;;53.23;28.63;;;;;;;17.54;54.97;96382.88;10369575;28;20075;-24
2022/05/03 15:05:17;;;;;;;49.72;28.70;;;;;;;17.61;55.47;96376.09;10329327;28;20177;-24
2022/05/03 15:10:18;;;;;;;122.07;67.68;;;;;;;17.62;56.21;96372.72;10331924;28;20566;-24
2022/05/03 15:15:21;;;;;;;137.70;79.10;;;;;;;17.72;59.80;96376.91;10343245;28;20042;-22
2022/05/03 15:20:24;;;;;;;123.25;72.50;;;;;;;17.75;60.30;96374.41;10328638;28;20034;-22
2022/05/03 15:25:26;;;;;;;62.47;34.97;;;;;;;17.56;55.82;96348.28;10328649;28;20073;-20
2022/05/03 15:30:27;;;;;;;68.70;37.38;;;;;;;17.63;55.63;96351.63;10344881;28;20045;-21
2022/05/03 15:35:31;;;;;;;59.95;34.83;;;;;;;17.57;55.44;96344.06;10344470;28;20460;-23
2022/05/03 15:40:31;;;;;;;47.55;28.80;;;;;;;17.62;55.31;96339.81;10329307;28;20022;-23
2022/05/03 15:45:33;;;;;;;63.38;34.65;;;;;;;17.57;55.14;96324.66;10341847;28;20400;-18
2022/05/03 15:50:33;;;;;;;48.22;29.23;;;;;;;17.62;55.22;96327.16;10330643;28;20482;-21
2022/05/03 15:55:34;;;;;;;47.80;28.88;;;;;;;17.63;55.05;96329.69;10324174;28;20115;-22
2022/05/03 16:00:36;;;;;;;71.33;39.87;;;;;;;17.66;56.00;96329.69;10360547;28;20026;-22
2022/05/03 16:05:37;;;;;;;52.42;27.25;;;;;;;17.67;55.21;96330.53;10333740;28;20084;-24
2022/05/03 16:10:37;;;;;;;48.63;28.13;;;;;;;17.67;55.04;96330.53;10327167;28;20030;-22
2022/05/03 16:15:38;;;;;;;82.30;45.28;;;;;;;17.67;57.94;96325.47;10327164;28;20060;-24
2022/05/03 16:20:38;;;;;;;83.22;49.25;;;;;;;17.77;59.77;96322.06;10326395;28;20030;-24
2022/05/03 16:25:40;;;;;;;82.28;46.20;;;;;;;17.80;59.68;96324.56;10326715;28;20429;-24
2022/05/03 16:30:40;;;;;;;47.20;28.85;;;;;;;17.72;55.81;96323.75;10347022;28;20044;-23
2022/05/03 16:35:41;;;;;;;41.00;26.60;;;;;;;17.70;55.43;96323.78;10354310;28;20448;-23
2022/05/03 16:46:01;;;;;;;43.08;26.60;;;;;;;17.66;54.54;96333.91;10339042;28;20481;-23
2022/05/03 16:51:07;;;;;;;39.78;24.70;;;;;;;17.62;54.98;96332.22;10354966;28;20045;-23
2022/05/03 16:56:08;;;;;;;46.88;26.45;;;;;;;17.64;55.25;96341.50;10350377;28;20045;-24
2022/05/03 17:01:08;;;;;;;42.95;24.98;;;;;;;17.64;55.31;96338.13;10370634;28;20037;-24
2022/05/03 17:06:08;;;;;;;44.25;25.73;;;;;;;17.64;55.04;96345.72;10363999;28;20056;-23
2022/05/03 17:11:09;;;;;;;41.05;25.20;;;;;;;17.60;55.01;96341.53;10373180;28;20112;-23
2022/05/03 17:16:09;;;;;;;39.77;24.90;;;;;;;17.60;55.16;96349.97;10373966;28;20455;-23
2022/05/03 17:21:09;;;;;;;81.57;45.30;;;;;;;17.66;60.09;96344.03;10355495;28;20512;-22
2022/05/03 17:26:10;;;;;;;91.47;46.43;;;;;;;17.79;60.85;96351.59;10348080;28;20443;-23
2022/05/03 17:31:11;;;;;;;69.40;41.07;;;;;;;17.77;60.95;96358.38;10387630;28;20288;-23
2022/05/03 17:36:12;;;;;;;46.97;26.30;;;;;;;17.70;55.95;96360.91;10365737;28;20030;-23
2022/05/03 17:41:13;;;;;;;39.80;22.85;;;;;;;17.69;55.20;96359.22;10342198;28;20036;-22
2022/05/03 17:46:15;;;;;;;40.20;23.20;;;;;;;17.65;55.24;96372.75;10334192;28;20040;-23
2022/05/03 17:51:16;;;;;;;39.90;23.52;;;;;;;17.63;54.98;96375.25;10353305;28;20040;-23
2022/05/03 17:56:17;;;;;;;37.97;23.80;;;;;;;17.63;55.15;96369.34;10358506;28;20357;-24
2022/05/03 18:01:20;;;;;;;45.03;26.92;;;;;;;17.65;55.46;96380.34;10345175;28;20397;-24
2022/05/03 18:06:21;;;;;;;40.20;24.02;;;;;;;17.64;55.29;96391.28;10360535;28;20053;-23
2022/05/03 18:11:22;;;;;;;40.10;24.52;;;;;;;17.64;55.19;96391.28;10365393;28;21757;-22
2022/05/03 18:16:22;;;;;;;41.13;24.07;;;;;;;17.65;55.47;96390.47;10364680;28;20038;-23
2022/05/03 18:21:22;;;;;;;32.57;22.10;;;;;;;17.64;54.96;96396.34;10354714;28;20080;-23
2022/05/03 18:26:23;;;;;;;66.63;40.63;;;;;;;17.73;60.32;96401.41;10358313;28;20037;-23
2022/05/03 18:31:24;;;;;;;66.25;38.75;;;;;;;17.81;61.34;96410.66;10385752;28;20419;-23
2022/05/03 18:36:24;;;;;;;52.35;31.90;;;;;;;17.77;57.81;96408.16;10391941;28;20548;-24
2022/05/03 18:41:25;;;;;;;38.23;24.17;;;;;;;17.76;55.61;96412.34;10369619;28;20018;-24
2022/05/03 18:46:26;;;;;;;34.30;22.50;;;;;;;17.73;55.36;96417.44;10370514;28;20384;-23
2022/05/03 18:51:27;;;;;;;36.42;23.48;;;;;;;17.71;55.37;96425.88;10367461;28;20032;-23
2022/05/03 18:56:27;;;;;;;33.47;22.08;;;;;;;17.71;55.13;96433.47;10358697;28;20058;-23
2022/05/03 19:01:28;;;;;;;38.43;22.90;;;;;;;17.68;55.08;96446.97;10358446;28;20050;-23
2022/05/03 19:06:28;;;;;;;34.47;21.48;;;;;;;17.67;55.09;96447.00;10355823;28;20121;-24
2022/05/03 19:11:29;;;;;;;37.55;22.27;;;;;;;17.64;55.05;96452.88;10361006;28;20419;-24
2022/05/03 19:16:30;;;;;;;33.65;20.83;;;;;;;17.66;55.14;96461.31;10359736;28;20466;-23
2022/05/03 19:21:31;;;;;;;35.80;22.17;;;;;;;17.65;55.09;96468.94;10343166;28;20038;-24
2022/05/03 19:31:53;;;;;;;52.28;32.72;;;;;;;17.72;60.11;96485.78;10353726;28;20739;-22
2022/05/03 19:36:55;;;;;;;51.20;32.60;;;;;;;17.76;60.60;96488.31;10369309;28;20416;-23
2022/05/03 19:41:57;;;;;;;50.60;31.90;;;;;;;17.80;60.41;96495.06;10363705;28;20046;-23
2022/05/03 19:46:57;;;;;;;33.53;21.25;;;;;;;17.70;55.73;96493.41;10324248;28;20038;-24
2022/05/03 19:51:58;;;;;;;34.07;21.27;;;;;;;17.70;55.34;96503.53;10356256;28;20037;-23
2022/05/03 19:56:59;;;;;;;28.05;20.40;;;;;;;17.65;55.05;96492.56;10360651;28;20477;-24
2022/05/03 20:01:59;;;;;;;35.10;21.07;;;;;;;17.69;55.34;96506.06;10364681;28;20067;-24
2022/05/03 20:07:00;;;;;;;33.80;21.65;;;;;;;17.68;55.25;96510.25;10343760;28;20038;-22
2022/05/03 20:12:00;;;;;;;41.40;25.33;;;;;;;17.67;55.38;96513.63;10338539;28;20694;-24
2022/05/03 20:17:01;;;;;;;32.60;21.70;;;;;;;17.71;55.45;96520.41;10327754;28;20042;-24
2022/05/03 20:22:02;;;;;;;30.17;21.30;;;;;;;17.68;55.29;96529.69;10353182;28;20030;-23
2022/05/03 20:27:03;;;;;;;30.80;19.80;;;;;;;17.70;55.15;96528.00;10366321;28;20117;-24
2022/05/03 20:32:04;;;;;;;30.55;20.50;;;;;;;17.70;54.79;96522.94;10367670;28;20044;-23
2022/05/03 20:37:04;;;;;;;46.30;29.00;;;;;;;17.79;59.99;96527.97;10341176;28;20126;-25
2022/05/03 20:42:05;;;;;;;46.47;28.60;;;;;;;17.85;60.54;96540.66;10365953;28;20034;-23
2022/05/03 20:52:24;;;;;;;28.13;18.58;;;;;;;17.79;55.58;96528.84;10359107;28;20339;-24
2022/05/03 20:57:25;;;;;;;29.83;19.90;;;;;;;17.76;55.42;96523.75;10363970;28;20454;-23
2022/05/03 21:02:25;;;;;;;27.03;18.77;;;;;;;17.70;55.01;96522.94;10366241;28;20038;-22
2022/05/03 21:07:26;;;;;;;30.15;19.33;;;;;;;17.71;54.97;96528.00;10362292;28;20100;-23
2022/05/03 21:12:28;;;;;;;27.73;19.35;;;;;;;17.71;55.04;96533.06;10345629;28;20412;-23
2022/05/03 21:17:29;;;;;;;27.35;19.23;;;;;;;17.70;55.10;96538.13;10326439;28;20038;-24
2022/05/03 21:22:29;;;;;;;26.05;17.67;;;;;;;17.71;55.05;96542.34;10325934;28;20042;-24
2022/05/03 21:27:30;;;;;;;26.92;18.23;;;;;;;17.69;55.27;96531.38;10325586;28;20042;-23
2022/05/03 21:32:30;;;;;;;26.20;18.60;;;;;;;17.67;55.06;96528.81;10375967;28;20470;-23
2022/05/03 21:37:30;;;;;;;28.20;18.37;;;;;;;17.68;55.08;96542.34;10356696;28;20034;-23
2022/05/03 21:42:31;;;;;;;39.83;25.13;;;;;;;17.77;62.26;96535.59;10351515;28;20025;-24
2022/05/03 21:47:33;;;;;;;37.03;24.23;;;;;;;17.82;62.30;96538.13;10372563;28;20026;-22
2022/05/03 21:52:33;;;;;;;37.50;23.38;;;;;;;17.83;61.85;96544.88;10372747;28;20646;-23
2022/05/03 21:57:33;;;;;;;28.53;18.70;;;;;;;17.74;56.81;96540.66;10372042;28;20209;-22
2022/05/03 22:02:34;;;;;;;28.30;18.67;;;;;;;17.70;55.90;96550.78;10373093;28;20033;-22
2022/05/03 22:07:34;;;;;;;29.47;19.83;;;;;;;17.68;55.80;96544.88;10345926;28;20038;-23
2022/05/03 22:12:35;;;;;;;29.13;19.27;;;;;;;17.67;55.93;96545.72;10352284;28;20030;-22
2022/05/03 22:17:35;;;;;;;24.85;17.23;;;;;;;17.64;55.70;96554.16;10373064;28;20049;-23
2022/05/03 22:22:36;;;;;;;30.53;19.30;;;;;;;17.66;55.71;96554.16;10345277;28;20496;-24
2022/05/03 22:27:36;;;;;;;26.83;17.73;;;;;;;17.65;55.80;96549.94;10341216;28;20034;-25
2022/05/03 22:32:36;;;;;;;25.30;17.57;;;;;;;17.63;55.40;96544.88;10396251;28;20029;-24
2022/05/03 22:37:37;;;;;;;28.00;18.30;;;;;;;17.63;55.40;96547.41;10365603;28;20041;-23
2022/05/03 22:42:39;;;;;;;25.60;15.83;;;;;;;17.64;55.40;96548.22;10330789;28;20042;-23
2022/05/03 22:47:40;;;;;;;36.28;24.52;;;;;;;17.75;62.67;96546.56;10330004;28;20365;-23
2022/05/03 22:52:44;;;;;;;37.85;23.35;;;;;;;17.82;64.57;96553.31;10361377;28;20476;-24
2022/05/03 22:57:44;;;;;;;29.77;21.20;;;;;;;17.81;61.77;96554.16;10347918;28;20041;-24
2022/05/03 23:02:45;;;;;;;25.20;17.67;;;;;;;17.65;56.93;96547.41;10329248;28;20038;-23
2022/05/03 23:07:45;;;;;;;23.67;16.73;;;;;;;17.68;56.37;96560.88;10329976;28;20034;-23
2022/05/03 23:12:45;;;;;;;25.23;17.35;;;;;;;17.68;55.84;96560.06;10329645;28;20034;-23
2022/05/03 23:17:46;;;;;;;25.43;17.57;;;;;;;17.62;55.64;96549.94;10330062;28;20398;-24
2022/05/03 23:22:46;;;;;;;25.33;17.73;;;;;;;17.65;55.64;96555.00;10360690;28;20041;-24
2022/05/03 23:27:47;;;;;;;26.93;18.10;;;;;;;17.65;55.54;96560.06;10346513;28;20289;-23
2022/05/03 23:32:47;;;;;;;25.87;16.80;;;;;;;17.66;55.73;96561.75;10383113;28;20512;-23
2022/05/03 23:37:48;;;;;;;21.45;16.10;;;;;;;17.66;55.77;96561.75;10364424;28;20176;-23
2022/05/03 23:42:48;;;;;;;24.35;16.77;;;;;;;17.64;55.35;96561.75;10345713;28;20042;-24
2022/05/03 23:47:49;;;;;;;21.17;15.67;;;;;;;17.65;55.72;96555.00;10328212;28;20038;-23
2022/05/03 23:52:49;;;;;;;32.97;21.57;;;;;;;17.74;63.98;96557.53;10366502;28;20370;-23
2022/05/03 23:57:53;;;;;;;31.90;20.55;;;;;;;17.79;64.06;96554.16;10345290;28;20038;-22
